sensor_id;sensor_type;location;lat;lon;timestamp;pressure;altitude;pressure_sealevel;temperature;humidity
52983;BME280;48698;45.736;13.926;2023-03-16T00:00:11;97587.94;;;3.70;60.19
52983;BME280;48698;45.736;13.926;2023-03-16T00:05:15;97532.47;;;3.12;60.72
52983;BME280;48698;45.736;13.926;2023-03-16T00:10:18;97650.84;;;3.76;61.63
52983;BME280;48698;45.736;13.926;2023-03-16T00:15:21;97670.78;;;3.47;61.92
52983;BME280;48698;45.736;13.926;2023-03-16T00:20:24;97695.81;;;3.62;62.33
52983;BME280;48698;45.736;13.926;2023-03-16T00:25:27;97659.25;;;3.54;60.96
52983;BME280;48698;45.736;13.926;2023-03-16T00:30:29;97698.34;;;4.02;60.58
52983;BME280;48698;45.736;13.926;2023-03-16T00:35:33;97529.28;;;3.00;60.00
52983;BME280;48698;45.736;13.926;2023-03-16T00:40:36;97618.59;;;3.71;58.55
52983;BME280;48698;45.736;13.926;2023-03-16T00:45:39;97599.28;;;3.72;57.94
52983;BME280;48698;45.736;13.926;2023-03-16T00:50:46;97638.28;;;4.22;56.89
52983;BME280;48698;45.736;13.926;2023-03-16T00:55:49;97664.88;;;4.10;57.91
52983;BME280;48698;45.736;13.926;2023-03-16T01:00:51;97380.25;;;2.43;57.99
52983;BME280;48698;45.736;13.926;2023-03-16T01:05:57;97707.81;;;4.09;59.07
52983;BME280;48698;45.736;13.926;2023-03-16T01:11:08;97635.69;;;3.50;59.96
52983;BME280;48698;45.736;13.926;2023-03-16T01:16:12;97706.25;;;4.02;60.04
52983;BME280;48698;45.736;13.926;2023-03-16T01:21:20;97710.38;;;4.12;60.02
52983;BME280;48698;45.736;13.926;2023-03-16T01:26:25;97702.66;;;4.04;60.67
52983;BME280;48698;45.736;13.926;2023-03-16T01:31:28;97673.03;;;3.62;60.99
52983;BME280;48698;45.736;13.926;2023-03-16T01:36:31;97401.59;;;1.87;61.17
52983;BME280;48698;45.736;13.926;2023-03-16T01:41:33;97489.09;;;2.61;60.96
52983;BME280;48698;45.736;13.926;2023-03-16T01:46:36;97662.38;;;3.69;60.56
52983;BME280;48698;45.736;13.926;2023-03-16T01:51:52;97544.50;;;2.84;61.54
52983;BME280;48698;45.736;13.926;2023-03-16T01:57:03;97683.44;;;3.67;62.06
52983;BME280;48698;45.736;13.926;2023-03-16T02:02:08;97552.75;;;2.68;62.76
52983;BME280;48698;45.736;13.926;2023-03-16T02:07:12;97693.84;;;3.33;63.17
52983;BME280;48698;45.736;13.926;2023-03-16T02:12:19;97588.03;;;2.51;64.11
52983;BME280;48698;45.736;13.926;2023-03-16T02:17:27;97666.00;;;3.26;62.37
52983;BME280;48698;45.736;13.926;2023-03-16T02:22:30;97701.28;;;3.53;62.54
52983;BME280;48698;45.736;13.926;2023-03-16T02:27:52;97693.16;;;3.63;62.57
52983;BME280;48698;45.736;13.926;2023-03-16T02:32:59;97707.09;;;3.67;62.03
52983;BME280;48698;45.736;13.926;2023-03-16T02:38:02;97679.16;;;3.63;61.67
52983;BME280;48698;45.736;13.926;2023-03-16T02:43:11;97713.31;;;4.00;60.98
52983;BME280;48698;45.736;13.926;2023-03-16T02:48:29;97663.47;;;3.97;60.38
52983;BME280;48698;45.736;13.926;2023-03-16T02:53:35;97733.75;;;4.24;60.57
52983;BME280;48698;45.736;13.926;2023-03-16T02:58:37;97707.09;;;4.04;60.55
52983;BME280;48698;45.736;13.926;2023-03-16T03:03:40;97711.81;;;3.88;61.00
52983;BME280;48698;45.736;13.926;2023-03-16T03:08:53;97718.88;;;3.88;61.41
52983;BME280;48698;45.736;13.926;2023-03-16T03:13:56;97450.41;;;1.91;61.83
52983;BME280;48698;45.736;13.926;2023-03-16T03:18:59;97479.63;;;2.14;61.58
52983;BME280;48698;45.736;13.926;2023-03-16T03:24:01;97473.50;;;2.15;61.83
52983;BME280;48698;45.736;13.926;2023-03-16T03:29:05;97705.50;;;3.60;61.61
52983;BME280;48698;45.736;13.926;2023-03-16T03:34:07;97626.47;;;2.94;61.89
52983;BME280;48698;45.736;13.926;2023-03-16T03:39:10;97666.03;;;3.25;62.07
52983;BME280;48698;45.736;13.926;2023-03-16T03:44:13;97747.06;;;3.41;62.81
52983;BME280;48698;45.736;13.926;2023-03-16T03:49:19;97685.06;;;2.94;62.99
52983;BME280;48698;45.736;13.926;2023-03-16T03:54:22;97651.69;;;2.58;63.52
52983;BME280;48698;45.736;13.926;2023-03-16T03:59:25;97767.41;;;3.30;63.35
52983;BME280;48698;45.736;13.926;2023-03-16T04:04:27;97609.53;;;2.24;63.19
52983;BME280;48698;45.736;13.926;2023-03-16T04:09:30;97693.47;;;2.66;63.64
52983;BME280;48698;45.736;13.926;2023-03-16T04:14:36;97775.75;;;3.07;64.22
52983;BME280;48698;45.736;13.926;2023-03-16T04:19:39;97738.03;;;2.66;65.52
52983;BME280;48698;45.736;13.926;2023-03-16T04:24:42;97562.81;;;1.52;64.66
52983;BME280;48698;45.736;13.926;2023-03-16T04:29:55;97586.44;;;1.48;65.55
52983;BME280;48698;45.736;13.926;2023-03-16T04:35:00;97647.84;;;1.81;65.95
52983;BME280;48698;45.736;13.926;2023-03-16T04:40:04;97832.28;;;3.24;64.65
52983;BME280;48698;45.736;13.926;2023-03-16T04:45:17;97813.97;;;3.63;63.75
52983;BME280;48698;45.736;13.926;2023-03-16T04:50:20;97787.44;;;3.34;64.11
52983;BME280;48698;45.736;13.926;2023-03-16T04:55:23;97779.25;;;3.05;64.73
52983;BME280;48698;45.736;13.926;2023-03-16T05:00:26;97825.34;;;3.21;65.11
52983;BME280;48698;45.736;13.926;2023-03-16T05:05:30;97511.38;;;1.51;64.25
52983;BME280;48698;45.736;13.926;2023-03-16T05:10:33;97763.63;;;3.00;64.24
52983;BME280;48698;45.736;13.926;2023-03-16T05:15:39;97835.22;;;3.91;64.13
52983;BME280;48698;45.736;13.926;2023-03-16T05:20:43;97829.06;;;3.52;64.72
52983;BME280;48698;45.736;13.926;2023-03-16T05:25:47;97859.88;;;3.87;65.28
52983;BME280;48698;45.736;13.926;2023-03-16T05:30:50;97850.00;;;3.55;66.29
52983;BME280;48698;45.736;13.926;2023-03-16T05:35:53;97861.25;;;3.62;66.29
52983;BME280;48698;45.736;13.926;2023-03-16T05:40:56;97882.84;;;3.76;66.81
52983;BME280;48698;45.736;13.926;2023-03-16T05:46:06;97833.69;;;3.41;66.48
52983;BME280;48698;45.736;13.926;2023-03-16T05:51:08;97760.06;;;3.03;66.65
52983;BME280;48698;45.736;13.926;2023-03-16T05:56:11;97546.22;;;2.01;66.64
52983;BME280;48698;45.736;13.926;2023-03-16T06:01:13;97853.63;;;3.91;66.82
52983;BME280;48698;45.736;13.926;2023-03-16T06:06:18;97734.94;;;3.34;66.98
52983;BME280;48698;45.736;13.926;2023-03-16T06:11:24;97897.13;;;4.44;66.62
52983;BME280;48698;45.736;13.926;2023-03-16T06:16:27;97914.13;;;4.30;66.99
52983;BME280;48698;45.736;13.926;2023-03-16T06:21:30;97792.69;;;3.34;68.91
52983;BME280;48698;45.736;13.926;2023-03-16T06:26:32;97818.38;;;3.61;67.79
52983;BME280;48698;45.736;13.926;2023-03-16T06:31:35;97639.50;;;2.55;67.24
52983;BME280;48698;45.736;13.926;2023-03-16T06:36:38;97914.00;;;4.34;67.72
52983;BME280;48698;45.736;13.926;2023-03-16T06:41:49;97761.00;;;3.43;68.39
52983;BME280;48698;45.736;13.926;2023-03-16T06:46:55;97969.88;;;4.84;68.04
52983;BME280;48698;45.736;13.926;2023-03-16T06:52:08;97861.56;;;4.28;67.49
52983;BME280;48698;45.736;13.926;2023-03-16T06:57:16;97776.13;;;3.72;69.60
52983;BME280;48698;45.736;13.926;2023-03-16T07:02:18;97791.25;;;4.01;69.30
52983;BME280;48698;45.736;13.926;2023-03-16T07:07:21;97663.56;;;3.55;70.53
52983;BME280;48698;45.736;13.926;2023-03-16T07:12:25;97828.03;;;4.38;69.12
52983;BME280;48698;45.736;13.926;2023-03-16T07:17:28;97725.75;;;3.92;69.01
52983;BME280;48698;45.736;13.926;2023-03-16T07:22:31;97969.31;;;5.42;70.06
52983;BME280;48698;45.736;13.926;2023-03-16T07:27:34;97890.47;;;5.02;68.82
52983;BME280;48698;45.736;13.926;2023-03-16T07:32:37;97927.72;;;5.20;67.96
52983;BME280;48698;45.736;13.926;2023-03-16T07:37:39;98007.06;;;5.76;69.25
52983;BME280;48698;45.736;13.926;2023-03-16T07:42:44;97892.66;;;5.20;68.76
52983;BME280;48698;45.736;13.926;2023-03-16T07:47:47;97991.75;;;5.92;68.70
52983;BME280;48698;45.736;13.926;2023-03-16T07:52:49;97940.00;;;5.54;68.80
52983;BME280;48698;45.736;13.926;2023-03-16T07:57:52;97974.50;;;5.79;68.46
52983;BME280;48698;45.736;13.926;2023-03-16T08:02:55;97791.25;;;4.72;68.41
52983;BME280;48698;45.736;13.926;2023-03-16T08:07:59;97759.13;;;4.59;68.38
52983;BME280;48698;45.736;13.926;2023-03-16T08:13:03;97907.03;;;5.71;67.84
52983;BME280;48698;45.736;13.926;2023-03-16T08:18:10;97719.06;;;4.82;68.92
52983;BME280;48698;45.736;13.926;2023-03-16T08:23:24;98030.66;;;7.04;67.99
52983;BME280;48698;45.736;13.926;2023-03-16T08:28:27;97856.31;;;6.23;66.57
52983;BME280;48698;45.736;13.926;2023-03-16T08:33:31;97938.84;;;6.56;67.08
52983;BME280;48698;45.736;13.926;2023-03-16T08:38:43;97989.25;;;7.32;68.87
52983;BME280;48698;45.736;13.926;2023-03-16T08:44:06;97842.44;;;6.46;68.52
52983;BME280;48698;45.736;13.926;2023-03-16T08:49:09;98020.03;;;7.86;67.68
52983;BME280;48698;45.736;13.926;2023-03-16T08:54:22;97938.38;;;7.76;67.39
52983;BME280;48698;45.736;13.926;2023-03-16T08:59:35;97908.69;;;8.41;66.44
52983;BME280;48698;45.736;13.926;2023-03-16T09:04:48;97796.03;;;7.18;63.27
52983;BME280;48698;45.736;13.926;2023-03-16T09:09:51;98035.53;;;8.70;63.07
52983;BME280;48698;45.736;13.926;2023-03-16T09:14:54;98034.53;;;9.41;64.55
52983;BME280;48698;45.736;13.926;2023-03-16T09:19:58;98006.72;;;9.71;64.30
52983;BME280;48698;45.736;13.926;2023-03-16T09:25:21;97928.59;;;9.99;63.12
52983;BME280;48698;45.736;13.926;2023-03-16T09:30:24;97870.75;;;9.48;60.12
52983;BME280;48698;45.736;13.926;2023-03-16T09:35:29;98017.81;;;10.80;63.83
52983;BME280;48698;45.736;13.926;2023-03-16T09:40:35;97888.28;;;10.11;60.47
52983;BME280;48698;45.736;13.926;2023-03-16T09:46:11;98077.13;;;11.20;58.14
52983;BME280;48698;45.736;13.926;2023-03-16T09:56:36;98082.34;;;11.59;58.93
52983;BME280;48698;45.736;13.926;2023-03-16T10:01:45;98081.56;;;11.19;55.68
52983;BME280;48698;45.736;13.926;2023-03-16T10:07:16;98030.25;;;12.42;59.38
52983;BME280;48698;45.736;13.926;2023-03-16T10:12:37;98070.13;;;13.42;53.66
52983;BME280;48698;45.736;13.926;2023-03-16T10:18:09;98060.16;;;12.30;54.56
52983;BME280;48698;45.736;13.926;2023-03-16T10:23:20;98052.28;;;12.94;54.67
52983;BME280;48698;45.736;13.926;2023-03-16T10:28:29;97814.81;;;12.52;54.33
52983;BME280;48698;45.736;13.926;2023-03-16T10:33:36;97998.16;;;13.56;51.99
52983;BME280;48698;45.736;13.926;2023-03-16T10:38:47;97895.66;;;13.44;50.95
52983;BME280;48698;45.736;13.926;2023-03-16T10:48:59;98042.75;;;14.59;49.45
52983;BME280;48698;45.736;13.926;2023-03-16T10:54:24;98003.44;;;12.78;50.28
52983;BME280;48698;45.736;13.926;2023-03-16T10:59:32;98056.66;;;13.90;48.80
52983;BME280;48698;45.736;13.926;2023-03-16T11:04:40;98116.25;;;14.52;45.77
52983;BME280;48698;45.736;13.926;2023-03-16T11:09:44;98077.66;;;12.85;48.14
52983;BME280;48698;45.736;13.926;2023-03-16T11:14:49;98068.78;;;14.12;49.16
52983;BME280;48698;45.736;13.926;2023-03-16T11:19:57;97816.09;;;12.60;47.21
52983;BME280;48698;45.736;13.926;2023-03-16T11:30:25;98075.34;;;12.45;47.82
52983;BME280;48698;45.736;13.926;2023-03-16T11:46:10;98050.78;;;12.73;50.07
52983;BME280;48698;45.736;13.926;2023-03-16T11:51:41;98057.75;;;13.08;49.04
52983;BME280;48698;45.736;13.926;2023-03-16T11:57:06;97968.56;;;11.82;50.31
52983;BME280;48698;45.736;13.926;2023-03-16T12:02:34;98045.91;;;12.31;48.34
52983;BME280;48698;45.736;13.926;2023-03-16T12:13:58;98028.97;;;11.98;51.32
52983;BME280;48698;45.736;13.926;2023-03-16T12:18:46;98021.84;;;11.45;50.16
52983;BME280;48698;45.736;13.926;2023-03-16T12:23:53;98015.03;;;11.75;50.44
52983;BME280;48698;45.736;13.926;2023-03-16T12:29:03;97871.34;;;11.58;49.13
52983;BME280;48698;45.736;13.926;2023-03-16T12:44:56;97706.81;;;10.32;49.79
52983;BME280;48698;45.736;13.926;2023-03-16T12:50:08;97996.88;;;12.35;47.76
52983;BME280;48698;45.736;13.926;2023-03-16T12:55:17;97988.13;;;11.81;46.54
52983;BME280;48698;45.736;13.926;2023-03-16T13:00:31;97927.19;;;11.41;47.01
52983;BME280;48698;45.736;13.926;2023-03-16T13:05:44;97879.78;;;11.49;48.27
52983;BME280;48698;45.736;13.926;2023-03-16T13:11:10;97979.47;;;12.45;47.97
52983;BME280;48698;45.736;13.926;2023-03-16T13:16:30;97975.97;;;12.60;49.40
52983;BME280;48698;45.736;13.926;2023-03-16T13:21:43;97887.34;;;11.57;47.82
52983;BME280;48698;45.736;13.926;2023-03-16T13:26:53;97967.56;;;12.35;49.62
52983;BME280;48698;45.736;13.926;2023-03-16T13:32:02;97991.03;;;12.77;51.20
52983;BME280;48698;45.736;13.926;2023-03-16T13:37:12;97970.41;;;12.80;48.56
52983;BME280;48698;45.736;13.926;2023-03-16T13:42:22;97844.78;;;12.39;50.11
52983;BME280;48698;45.736;13.926;2023-03-16T13:47:26;97961.69;;;13.41;53.74
52983;BME280;48698;45.736;13.926;2023-03-16T13:52:32;97958.22;;;12.43;57.03
52983;BME280;48698;45.736;13.926;2023-03-16T13:57:41;97899.50;;;11.97;56.41
52983;BME280;48698;45.736;13.926;2023-03-16T14:02:51;97921.75;;;11.96;59.20
52983;BME280;48698;45.736;13.926;2023-03-16T14:07:55;97952.56;;;12.17;61.47
52983;BME280;48698;45.736;13.926;2023-03-16T14:18:37;97843.09;;;11.38;59.38
52983;BME280;48698;45.736;13.926;2023-03-16T14:23:46;97955.59;;;12.26;59.71
52983;BME280;48698;45.736;13.926;2023-03-16T14:29:06;97921.13;;;11.73;56.36
52983;BME280;48698;45.736;13.926;2023-03-16T14:34:27;97835.81;;;11.25;55.93
52983;BME280;48698;45.736;13.926;2023-03-16T14:39:31;97897.44;;;11.50;58.31
52983;BME280;48698;45.736;13.926;2023-03-16T14:44:37;97829.09;;;11.18;57.20
52983;BME280;48698;45.736;13.926;2023-03-16T14:49:40;97889.34;;;11.36;57.38
52983;BME280;48698;45.736;13.926;2023-03-16T14:54:44;97937.72;;;11.96;58.19
52983;BME280;48698;45.736;13.926;2023-03-16T14:59:58;97772.81;;;10.93;56.82
52983;BME280;48698;45.736;13.926;2023-03-16T15:05:02;97635.69;;;10.03;58.25
52983;BME280;48698;45.736;13.926;2023-03-16T15:10:19;97901.97;;;11.31;58.62
52983;BME280;48698;45.736;13.926;2023-03-16T15:15:24;97919.16;;;11.60;59.10
52983;BME280;48698;45.736;13.926;2023-03-16T15:20:33;97846.09;;;10.79;59.23
52983;BME280;48698;45.736;13.926;2023-03-16T15:25:39;97957.09;;;11.46;58.25
52983;BME280;48698;45.736;13.926;2023-03-16T15:30:45;97958.63;;;11.33;58.46
52983;BME280;48698;45.736;13.926;2023-03-16T15:35:50;97895.16;;;11.08;58.50
52983;BME280;48698;45.736;13.926;2023-03-16T15:40:54;97932.50;;;11.58;57.84
52983;BME280;48698;45.736;13.926;2023-03-16T15:45:58;97698.78;;;10.15;58.86
52983;BME280;48698;45.736;13.926;2023-03-16T15:51:11;97971.84;;;11.87;62.26
52983;BME280;48698;45.736;13.926;2023-03-16T15:56:22;97856.03;;;10.38;63.68
52983;BME280;48698;45.736;13.926;2023-03-16T16:01:36;97892.41;;;10.55;67.55
52983;BME280;48698;45.736;13.926;2023-03-16T16:06:42;97967.19;;;10.65;65.29
52983;BME280;48698;45.736;13.926;2023-03-16T16:11:45;97863.25;;;9.77;64.03
52983;BME280;48698;45.736;13.926;2023-03-16T16:16:58;97878.19;;;9.99;67.76
52983;BME280;48698;45.736;13.926;2023-03-16T16:22:02;97929.56;;;9.77;69.41
52983;BME280;48698;45.736;13.926;2023-03-16T16:27:09;97774.88;;;8.98;68.37
52983;BME280;48698;45.736;13.926;2023-03-16T16:32:20;97925.88;;;10.59;69.05
52983;BME280;48698;45.736;13.926;2023-03-16T16:37:25;97905.84;;;10.52;68.06
52983;BME280;48698;45.736;13.926;2023-03-16T16:42:28;98035.47;;;10.02;69.96
52983;BME280;48698;45.736;13.926;2023-03-16T16:47:31;98006.81;;;9.48;73.03
52983;BME280;48698;45.736;13.926;2023-03-16T16:52:35;98001.88;;;8.96;76.83
52983;BME280;48698;45.736;13.926;2023-03-16T16:57:39;98054.94;;;9.16;78.36
52983;BME280;48698;45.736;13.926;2023-03-16T17:02:45;98071.00;;;9.34;78.96
52983;BME280;48698;45.736;13.926;2023-03-16T17:07:50;98024.00;;;8.48;84.29
52983;BME280;48698;45.736;13.926;2023-03-16T17:12:55;98071.59;;;7.72;92.68
52983;BME280;48698;45.736;13.926;2023-03-16T17:18:08;98091.63;;;7.79;100.00
52983;BME280;48698;45.736;13.926;2023-03-16T17:23:26;98100.03;;;7.38;100.00
52983;BME280;48698;45.736;13.926;2023-03-16T17:28:34;97985.66;;;6.20;100.00
52983;BME280;48698;45.736;13.926;2023-03-16T17:33:41;97907.84;;;5.43;100.00
52983;BME280;48698;45.736;13.926;2023-03-16T17:38:54;97870.38;;;4.98;100.00
52983;BME280;48698;45.736;13.926;2023-03-16T17:44:01;98122.03;;;5.45;100.00
52983;BME280;48698;45.736;13.926;2023-03-16T17:49:14;98133.66;;;5.36;100.00
52983;BME280;48698;45.736;13.926;2023-03-16T17:54:20;97931.00;;;4.18;100.00
52983;BME280;48698;45.736;13.926;2023-03-16T17:59:24;98081.16;;;4.90;100.00
52983;BME280;48698;45.736;13.926;2023-03-16T18:04:28;98163.91;;;4.76;100.00
52983;BME280;48698;45.736;13.926;2023-03-16T18:09:35;98151.31;;;3.98;100.00
52983;BME280;48698;45.736;13.926;2023-03-16T18:14:38;98125.91;;;3.45;100.00
52983;BME280;48698;45.736;13.926;2023-03-16T18:19:50;98108.53;;;3.90;100.00
52983;BME280;48698;45.736;13.926;2023-03-16T18:24:54;98034.22;;;3.34;100.00
52983;BME280;48698;45.736;13.926;2023-03-16T18:29:57;98067.13;;;4.02;100.00
52983;BME280;48698;45.736;13.926;2023-03-16T18:35:01;98140.53;;;3.62;100.00
52983;BME280;48698;45.736;13.926;2023-03-16T18:40:08;98082.63;;;3.69;100.00
52983;BME280;48698;45.736;13.926;2023-03-16T18:45:14;98152.41;;;3.85;100.00
52983;BME280;48698;45.736;13.926;2023-03-16T18:50:21;98187.09;;;4.05;100.00
52983;BME280;48698;45.736;13.926;2023-03-16T18:55:25;98188.88;;;3.49;100.00
52983;BME280;48698;45.736;13.926;2023-03-16T19:00:30;98202.88;;;3.48;100.00
52983;BME280;48698;45.736;13.926;2023-03-16T19:05:35;98116.22;;;2.89;100.00
52983;BME280;48698;45.736;13.926;2023-03-16T19:10:50;98094.41;;;2.88;100.00
52983;BME280;48698;45.736;13.926;2023-03-16T19:15:55;98184.53;;;3.45;100.00
52983;BME280;48698;45.736;13.926;2023-03-16T19:20:59;98169.69;;;2.80;100.00
52983;BME280;48698;45.736;13.926;2023-03-16T19:26:04;98202.38;;;3.24;100.00
52983;BME280;48698;45.736;13.926;2023-03-16T19:31:29;98160.16;;;2.75;100.00
52983;BME280;48698;45.736;13.926;2023-03-16T19:36:34;98222.50;;;2.48;100.00
52983;BME280;48698;45.736;13.926;2023-03-16T19:41:48;98252.56;;;2.96;100.00
52983;BME280;48698;45.736;13.926;2023-03-16T19:46:52;98250.16;;;2.78;100.00
52983;BME280;48698;45.736;13.926;2023-03-16T19:51:57;98213.88;;;3.12;100.00
52983;BME280;48698;45.736;13.926;2023-03-16T19:57:08;98110.97;;;1.21;100.00
52983;BME280;48698;45.736;13.926;2023-03-16T20:02:24;98235.63;;;2.44;100.00
52983;BME280;48698;45.736;13.926;2023-03-16T20:07:28;98242.06;;;2.11;100.00
52983;BME280;48698;45.736;13.926;2023-03-16T20:12:40;98133.13;;;1.89;100.00
52983;BME280;48698;45.736;13.926;2023-03-16T20:17:44;98227.66;;;2.57;100.00
52983;BME280;48698;45.736;13.926;2023-03-16T20:22:48;98117.19;;;1.05;100.00
52983;BME280;48698;45.736;13.926;2023-03-16T20:27:54;98250.31;;;1.53;100.00
52983;BME280;48698;45.736;13.926;2023-03-16T20:32:58;98037.41;;;0.31;100.00
52983;BME280;48698;45.736;13.926;2023-03-16T20:38:02;98104.25;;;0.82;100.00
52983;BME280;48698;45.736;13.926;2023-03-16T20:43:29;98259.25;;;2.39;100.00
52983;BME280;48698;45.736;13.926;2023-03-16T20:48:33;98146.88;;;2.06;100.00
52983;BME280;48698;45.736;13.926;2023-03-16T20:53:37;98115.31;;;1.22;100.00
52983;BME280;48698;45.736;13.926;2023-03-16T20:58:41;98104.88;;;1.16;100.00
52983;BME280;48698;45.736;13.926;2023-03-16T21:03:49;98251.66;;;2.12;100.00
52983;BME280;48698;45.736;13.926;2023-03-16T21:08:56;98261.19;;;2.21;100.00
52983;BME280;48698;45.736;13.926;2023-03-16T21:14:00;98255.84;;;2.34;100.00
52983;BME280;48698;45.736;13.926;2023-03-16T21:19:11;98180.56;;;1.46;100.00
52983;BME280;48698;45.736;13.926;2023-03-16T21:24:15;98211.56;;;2.01;100.00
52983;BME280;48698;45.736;13.926;2023-03-16T21:29:19;98259.19;;;2.45;100.00
52983;BME280;48698;45.736;13.926;2023-03-16T21:34:29;98149.63;;;1.95;100.00
52983;BME280;48698;45.736;13.926;2023-03-16T21:39:35;98033.31;;;1.23;100.00
52983;BME280;48698;45.736;13.926;2023-03-16T21:44:39;98101.03;;;1.66;100.00
52983;BME280;48698;45.736;13.926;2023-03-16T21:49:42;98153.72;;;2.25;100.00
52983;BME280;48698;45.736;13.926;2023-03-16T21:54:46;98220.59;;;2.63;100.00
52983;BME280;48698;45.736;13.926;2023-03-16T21:59:50;98227.66;;;2.57;100.00
52983;BME280;48698;45.736;13.926;2023-03-16T22:04:55;98270.56;;;2.46;100.00
52983;BME280;48698;45.736;13.926;2023-03-16T22:09:58;98098.66;;;1.35;100.00
52983;BME280;48698;45.736;13.926;2023-03-16T22:15:02;97989.63;;;0.04;100.00
52983;BME280;48698;45.736;13.926;2023-03-16T22:20:18;98292.75;;;2.04;100.00
52983;BME280;48698;45.736;13.926;2023-03-16T22:25:24;98279.91;;;1.68;100.00
52983;BME280;48698;45.736;13.926;2023-03-16T22:30:29;98232.25;;;1.08;100.00
52983;BME280;48698;45.736;13.926;2023-03-16T22:35:35;98173.09;;;0.77;100.00
52983;BME280;48698;45.736;13.926;2023-03-16T22:40:40;98215.88;;;0.62;100.00
52983;BME280;48698;45.736;13.926;2023-03-16T22:45:44;98290.78;;;0.59;100.00
52983;BME280;48698;45.736;13.926;2023-03-16T22:50:49;98282.03;;;0.73;100.00
52983;BME280;48698;45.736;13.926;2023-03-16T22:55:54;98293.38;;;0.78;100.00
52983;BME280;48698;45.736;13.926;2023-03-16T23:00:59;98275.91;;;0.88;100.00
52983;BME280;48698;45.736;13.926;2023-03-16T23:06:04;98011.59;;;-1.08;100.00
52983;BME280;48698;45.736;13.926;2023-03-16T23:11:17;98272.47;;;0.72;100.00
52983;BME280;48698;45.736;13.926;2023-03-16T23:16:32;98258.56;;;0.60;100.00
52983;BME280;48698;45.736;13.926;2023-03-16T23:21:35;98258.50;;;0.73;100.00
52983;BME280;48698;45.736;13.926;2023-03-16T23:26:40;98274.16;;;0.96;100.00
52983;BME280;48698;45.736;13.926;2023-03-16T23:31:54;98304.75;;;0.48;100.00
52983;BME280;48698;45.736;13.926;2023-03-16T23:36:58;98038.53;;;-1.11;100.00
52983;BME280;48698;45.736;13.926;2023-03-16T23:42:02;98281.22;;;0.50;100.00
52983;BME280;48698;45.736;13.926;2023-03-16T23:47:09;98282.94;;;0.60;100.00
52983;BME280;48698;45.736;13.926;2023-03-16T23:52:13;98162.88;;;-0.11;100.00
52983;BME280;48698;45.736;13.926;2023-03-16T23:57:26;98186.34;;;0.10;100.00
